Grantsburg, WI (54840)

10:00 AM CST on February 07, 2016 (GMT -0600)
Neighbors of Faith | | Change Station
CLOSE
Current Station
Personal Weather Station
Location: Grantsburg, WI
Elevation: 922 ft
Nearby Weather Stations

Elev 922 ft 45.78 °N, 92.69 °W | Updated 8 seconds ago

Overcast
Overcast
36.6 °F
Feels Like 32 °F
N
5.0
Wind Variable Wind from NW
Gusts 5.0 mph

Today
High -- | Low -- °F
--% Chance of Precip.
Yesterday
High -- | Low -- °F
Precip. -- in
Pressure 29.53 in
Visibility 10.0 miles
Clouds Overcast 2200 ft
Windchill 32 °F
Dew Point 33 °F
Humidity 85%
Rainfall 0.02 in
Snow Depth Not available.
7:25 AM 5:24 PM
Waning Crescent, 1% visible
METAR KRZN 071530Z AUTO 26011G20KT 10SM OVC022 02/M01 A2953 RMK AO2 T00231010
Pressure 29.53 in
Visibility 10.0 miles
Clouds Overcast 2200 ft
Windchill 32 °F
Dew Point 33 °F
Humidity 85%
Rainfall 0.02 in
Snow Depth Not available.
7:25 AM 5:24 PM
Waning Crescent, 1% visible
METAR KRZN 071530Z AUTO 26011G20KT 10SM OVC022 02/M01 A2953 RMK AO2 T00231010

10-Day Weather Forecast

Almanac

Astronomy

Feb. 07, 2016 Rise Set
Actual Time
Civil Twilight
Nautical Twilight
Astronomical Twilight
Moon
Length of Visible Light
Length of Day
Tomorrow will be .
, % of the Moon is Illuminated

Today's Extremes

State Highs State Lows

Community

WunderPhotos

Upload Photos

1,891,216 photos uploaded!

WunderBlog® & News

Nearby

Air Quality

  Air Quality AQ Index Pollutant
Not available.

Snow Depth

Station Depth Elevation

Earthquake Activity

City Distance Mag. Time & Date
Minimum magnitude displayed is 2.5.

Coastal Water Temperatures

Place Temperature

Stations

Nearby Weather Stations

Station Location Temp. Windchill Dew Point Humidity Wind Precip. Elev Updated Type
                   

Watches & Warnings

There are currently no watches in effect.